Home PIREPS Pireps

Flight BEL1010

  • Submitted By: Johan Willems
  • Departure Airport: airport Dusseldorf (EDDL)
  • Arrival Airport: Bruxelles National (EBBR)
  • Aircraft: A320-214 (OO-SNG)
  • Flight Time: 01.16
  • Date Submitted: 09/04/2015
  • Route: NETEX LNO
  • Status: Accepted
Flight Details
Gross Revenue:
(142 load / € 0.00 per unit
€ 0.00
Fuel Cost:
(9216 fuel used @ 0 / unit)
€ 0.00

Additional Log Information:

View Log

Aircraft Used in flight is Airbus A320 British Airways G-EUUU
15:31 Brakes are On
15:31 Brakes are Released
15:42 You Took off @ 149 Knots and Flaps at Position 3
Departure Weather
EDDL 091320Z 35004KT CAVOK 18/06 Q1026 NOSIGrn
15:42 Landing Gear Up @ 157 Knots and 180 Feet
15:43 Below 10000 feet you are not allowed to go over 250 knots
15:45 Above FL100 you need to switch of the landing lights
15:46 You exceeded maximum bank angle
15:58 Above FL100 you need to switch of the landing lights
16:05 Landing Gear Down @ 177 Knots and 1920 Feet
16:07 You Landed @ 140 Knots and with -500 Vertical Speed
Arrival Weather
EBBR 091350Z VRB02KT 9000 NSC 18/05 Q1026 NOSIGrn
16:14 Brakes are On
16:47 Brakes are Released
16:47 You are Airborne and your Beacons are off
16:47 You are Airborne and your Navigation Lights are off
16:47 Brussels Bel-Track1.0.0.9

Route Map

Corporate About Us Our Team Vacancies Information Fleet Route Network Rules and Regulations Operations Flight Schedules Event Center Tours Partners IVAO Vatsim Acars dev FSCB

fb Users Online No pilots online!
0 Pilot(s) and 72 Guest(s) Online
CMS by phpVMS - Design by Crazycreatives.com - Copyright © 2018 - Brussels Airlines Virtual